createdAt,value
2022-12-12T00:00:53.206Z,91.73
2022-12-12T00:01:57.145Z,92.12
2022-12-12T00:03:01.144Z,92.25
2022-12-12T00:04:06.034Z,92.68
2022-12-12T00:05:15.645Z,92.66
2022-12-12T00:06:20.419Z,91.99
2022-12-12T00:07:24.130Z,91.98
2022-12-12T00:08:27.994Z,92.32
2022-12-12T00:09:31.622Z,91.98
2022-12-12T00:10:36.534Z,92.30
2022-12-12T00:11:41.202Z,92.70
2022-12-12T00:12:44.786Z,92.57
2022-12-12T00:13:49.357Z,92.63
2022-12-12T00:14:52.994Z,92.19
2022-12-12T00:15:56.657Z,91.90
2022-12-12T00:17:00.644Z,92.06
2022-12-12T00:18:04.581Z,92.18
2022-12-12T00:19:08.230Z,92.45
2022-12-12T00:20:12.035Z,92.70
2022-12-12T00:21:23.487Z,92.38
2022-12-12T00:22:27.231Z,92.48
2022-12-12T00:23:31.246Z,92.80
2022-12-12T00:24:35.076Z,92.14
2022-12-12T00:25:38.657Z,92.34
2022-12-12T00:26:42.463Z,93.00
2022-12-12T00:27:47.199Z,93.34
2022-12-12T00:28:51.343Z,93.45
2022-12-12T00:29:56.007Z,93.08
2022-12-12T00:31:00.007Z,92.88
2022-12-12T00:32:04.112Z,92.69
2022-12-12T00:33:07.825Z,92.99
2022-12-12T00:34:11.523Z,93.21
2022-12-12T00:35:15.490Z,93.64
2022-12-12T00:36:24.827Z,93.26
2022-12-12T00:37:28.513Z,93.38
2022-12-12T00:38:32.078Z,93.25
2022-12-12T00:39:36.009Z,93.15
2022-12-12T00:40:39.702Z,92.84
2022-12-12T00:41:43.962Z,92.85
2022-12-12T00:42:47.423Z,92.90
2022-12-12T00:43:51.593Z,93.24
2022-12-12T00:44:55.160Z,92.74
2022-12-12T00:46:00.776Z,93.05
2022-12-12T00:47:04.444Z,92.92
2022-12-12T00:48:08.371Z,92.82
2022-12-12T00:49:13.418Z,92.80
2022-12-12T00:50:17.362Z,92.60
2022-12-12T00:51:24.297Z,92.83
2022-12-12T00:52:28.399Z,92.77
2022-12-12T00:53:32.211Z,92.94
2022-12-12T00:54:36.113Z,93.00
2022-12-12T00:55:40.285Z,93.40
2022-12-12T00:56:43.928Z,92.97
2022-12-12T00:57:47.671Z,93.14
2022-12-12T00:58:52.640Z,93.00
2022-12-12T00:59:56.222Z,93.22
2022-12-12T01:01:06.694Z,93.41
2022-12-12T01:02:10.809Z,93.43
2022-12-12T01:03:14.604Z,93.50
2022-12-12T01:04:18.327Z,93.08
2022-12-12T01:05:22.360Z,92.52
2022-12-12T01:06:27.901Z,92.81
2022-12-12T01:07:32.123Z,92.85
2022-12-12T01:08:36.001Z,93.27
2022-12-12T01:09:39.679Z,93.02
2022-12-12T01:10:43.379Z,93.24
2022-12-12T01:11:47.458Z,92.64
2022-12-12T01:12:51.317Z,92.46
2022-12-12T01:13:56.340Z,92.68
2022-12-12T01:15:00.098Z,92.55
2022-12-12T01:16:06.088Z,92.86
2022-12-12T01:17:09.834Z,93.61
2022-12-12T01:18:14.461Z,93.54
2022-12-12T01:19:18.484Z,93.18
2022-12-12T01:20:27.887Z,93.62
2022-12-12T01:21:32.439Z,93.77
2022-12-12T01:22:37.439Z,93.25
2022-12-12T01:23:42.317Z,93.30
2022-12-12T01:24:46.004Z,92.99
2022-12-12T01:25:49.974Z,93.04
2022-12-12T01:26:53.677Z,93.04
2022-12-12T01:27:57.238Z,93.09
2022-12-12T01:29:01.100Z,93.01
2022-12-12T01:30:06.784Z,92.58
2022-12-12T01:31:11.317Z,92.78
2022-12-12T01:32:15.097Z,93.28
2022-12-12T01:33:19.963Z,93.73
2022-12-12T01:34:24.007Z,93.58
2022-12-12T01:35:28.379Z,93.38
2022-12-12T01:36:32.173Z,93.27
2022-12-12T01:37:37.999Z,93.57
2022-12-12T01:38:41.589Z,93.61
2022-12-12T01:39:45.515Z,93.46
2022-12-12T01:40:49.000Z,93.46
2022-12-12T01:41:52.627Z,94.07
2022-12-12T01:42:56.670Z,93.54
2022-12-12T01:44:27.486Z,94.26
2022-12-12T01:45:58.903Z,93.63
2022-12-12T01:47:02.543Z,93.80
2022-12-12T01:48:06.337Z,93.86
2022-12-12T01:49:21.345Z,94.44
2022-12-12T01:50:24.958Z,94.78
2022-12-12T01:51:30.425Z,94.42
2022-12-12T01:52:46.822Z,94.19
2022-12-12T01:53:58.405Z,94.16
2022-12-12T01:55:06.576Z,93.82
2022-12-12T01:56:17.388Z,94.11
2022-12-12T01:57:33.539Z,94.65
2022-12-12T01:58:37.306Z,94.49
2022-12-12T01:59:42.468Z,94.62
2022-12-12T02:00:46.671Z,94.61
2022-12-12T02:01:52.427Z,94.51
2022-12-12T02:02:57.229Z,94.39
2022-12-12T02:04:03.072Z,94.32
2022-12-12T02:05:26.916Z,94.79
2022-12-12T02:06:31.285Z,94.70
2022-12-12T02:07:35.408Z,94.92
2022-12-12T02:08:41.210Z,94.93
2022-12-12T02:09:46.566Z,94.16
2022-12-12T02:10:51.552Z,94.13
2022-12-12T02:11:58.126Z,94.11
2022-12-12T02:13:12.148Z,94.26
2022-12-12T02:14:38.665Z,94.51
2022-12-12T02:16:21.078Z,94.68
2022-12-12T02:17:39.461Z,95.54
2022-12-12T02:19:23.080Z,94.94
2022-12-12T02:21:16.132Z,94.90
2022-12-12T02:22:43.754Z,95.12
2022-12-12T02:24:41.624Z,95.68
2022-12-12T02:26:03.840Z,96.09
2022-12-12T02:27:18.832Z,95.85
2022-12-12T02:28:31.433Z,95.27
2022-12-12T02:30:10.772Z,95.54
2022-12-12T02:31:34.928Z,95.50
2022-12-12T02:33:23.870Z,95.23
2022-12-12T02:34:50.810Z,94.91
2022-12-12T02:36:02.330Z,95.33
2022-12-12T02:37:29.760Z,95.52
2022-12-12T02:38:49.072Z,95.33
2022-12-12T02:40:24.648Z,95.12
2022-12-12T02:41:58.328Z,94.78
2022-12-12T02:43:34.031Z,95.48
2022-12-12T02:44:51.044Z,95.06
2022-12-12T02:46:10.082Z,95.83
2022-12-12T02:47:23.443Z,95.62
2022-12-12T02:48:40.435Z,95.29
2022-12-12T02:49:58.794Z,94.62
2022-12-12T02:51:08.275Z,94.68
2022-12-12T02:52:12.649Z,94.98
2022-12-12T02:53:24.728Z,94.42
2022-12-12T02:54:28.865Z,94.79
2022-12-12T02:55:36.437Z,94.70
2022-12-12T02:56:51.025Z,94.33
2022-12-12T02:57:55.523Z,94.73
2022-12-12T02:58:59.358Z,94.21
2022-12-12T03:00:09.960Z,94.29
2022-12-12T03:01:58.606Z,94.02
2022-12-12T03:04:14.766Z,93.93
2022-12-12T03:05:52.138Z,94.53
2022-12-12T03:07:33.181Z,94.74
2022-12-12T03:09:10.149Z,94.50
2022-12-12T03:10:57.704Z,94.47
2022-12-12T03:12:52.446Z,94.40
2022-12-12T03:14:25.038Z,94.75
2022-12-12T03:15:54.742Z,94.56
2022-12-12T03:17:15.881Z,94.92
2022-12-12T03:18:38.529Z,94.69
2022-12-12T03:19:55.194Z,95.08
2022-12-12T03:21:16.109Z,95.46
2022-12-12T03:22:46.243Z,94.68
2022-12-12T03:24:00.216Z,95.20
2022-12-12T03:25:19.066Z,94.95
2022-12-12T03:26:44.204Z,94.71
2022-12-12T03:28:13.756Z,95.32
2022-12-12T03:29:46.885Z,94.98
2022-12-12T03:30:57.908Z,94.30
2022-12-12T03:32:13.075Z,94.25
2022-12-12T03:33:48.122Z,94.98
2022-12-12T03:35:03.541Z,94.32
2022-12-12T03:36:20.509Z,94.41
2022-12-12T03:37:34.258Z,94.71
2022-12-12T03:38:47.407Z,94.79
2022-12-12T03:39:59.620Z,94.82
2022-12-12T03:41:09.363Z,95.17
2022-12-12T03:42:27.093Z,95.61
2022-12-12T03:43:37.923Z,95.25
2022-12-12T03:45:13.557Z,94.76
2022-12-12T03:46:41.212Z,95.05
2022-12-12T03:48:01.115Z,94.85
2022-12-12T03:49:17.809Z,94.88
2022-12-12T03:50:27.430Z,95.14
2022-12-12T03:51:36.941Z,95.19
2022-12-12T03:53:11.327Z,94.99
2022-12-12T03:54:36.922Z,94.39
2022-12-12T03:55:53.262Z,94.78
2022-12-12T03:57:07.715Z,94.63
2022-12-12T03:58:28.011Z,95.18
2022-12-12T03:59:55.604Z,94.72
2022-12-12T04:01:04.821Z,95.13
2022-12-12T04:02:31.373Z,95.22
2022-12-12T04:04:07.777Z,95.15
2022-12-12T04:05:36.033Z,95.58
2022-12-12T04:06:55.541Z,95.53
2022-12-12T04:08:15.727Z,96.07
2022-12-12T04:09:39.989Z,95.84
2022-12-12T04:11:12.110Z,96.07
2022-12-12T04:12:40.377Z,95.71
2022-12-12T04:14:06.185Z,96.39
2022-12-12T04:15:58.451Z,95.69
2022-12-12T04:17:06.859Z,95.80
2022-12-12T04:18:19.181Z,96.24
2022-12-12T04:20:10.365Z,96.10
2022-12-12T04:21:56.807Z,96.10
2022-12-12T04:23:30.879Z,96.35
2022-12-12T04:25:06.121Z,95.63
2022-12-12T04:26:42.433Z,95.23
2022-12-12T04:27:54.719Z,95.55
2022-12-12T04:29:28.642Z,95.23
2022-12-12T04:30:35.812Z,95.43
2022-12-12T04:31:57.222Z,95.30
2022-12-12T04:33:14.659Z,95.60
2022-12-12T04:34:31.927Z,96.00
2022-12-12T04:35:41.465Z,95.88
2022-12-12T04:36:48.184Z,95.95
2022-12-12T04:38:27.502Z,96.53
2022-12-12T04:39:37.177Z,96.28
2022-12-12T04:40:50.614Z,96.14
2022-12-12T04:41:56.391Z,95.44
2022-12-12T04:43:17.619Z,95.48
2022-12-12T04:44:24.586Z,95.62
2022-12-12T04:45:41.030Z,96.05
2022-12-12T04:46:51.400Z,96.21
2022-12-12T04:47:58.753Z,96.34
2022-12-12T04:49:22.358Z,96.30
2022-12-12T04:50:31.806Z,96.51
2022-12-12T04:51:46.795Z,96.08
2022-12-12T04:52:53.859Z,96.53
2022-12-12T04:54:10.997Z,95.72
2022-12-12T04:55:36.988Z,95.58
2022-12-12T04:56:53.026Z,95.29
2022-12-12T04:57:57.286Z,95.06
2022-12-12T04:59:02.940Z,94.71
2022-12-12T05:00:12.681Z,95.03
2022-12-12T05:01:52.856Z,94.98
2022-12-12T05:03:20.605Z,94.38
2022-12-12T05:04:51.421Z,94.48
2022-12-12T05:06:08.041Z,94.36
2022-12-12T05:07:23.253Z,94.32
2022-12-12T05:08:39.940Z,94.48
2022-12-12T05:09:44.453Z,94.32
2022-12-12T05:10:54.901Z,94.24
2022-12-12T05:11:58.859Z,94.00
2022-12-12T05:13:03.143Z,94.18
2022-12-12T05:14:10.186Z,94.27
2022-12-12T05:15:16.801Z,94.35
2022-12-12T05:16:48.256Z,94.60
2022-12-12T05:18:08.373Z,94.47
2022-12-12T05:19:11.964Z,94.42
2022-12-12T05:20:17.089Z,94.56
2022-12-12T05:21:20.986Z,94.09
2022-12-12T05:22:25.187Z,94.32
2022-12-12T05:23:34.465Z,94.00
2022-12-12T05:24:38.565Z,94.76
2022-12-12T05:25:42.420Z,94.59
2022-12-12T05:26:46.193Z,94.56
2022-12-12T05:27:50.171Z,94.71
2022-12-12T05:28:55.313Z,94.23
2022-12-12T05:29:59.184Z,94.01
2022-12-12T05:31:03.325Z,93.58
2022-12-12T05:32:07.240Z,93.85
2022-12-12T05:33:11.266Z,94.26
2022-12-12T05:34:15.021Z,94.29
2022-12-12T05:35:19.389Z,93.85
2022-12-12T05:36:23.246Z,93.83
2022-12-12T05:37:27.248Z,94.15
2022-12-12T05:38:31.120Z,94.48
2022-12-12T05:39:34.996Z,94.57
2022-12-12T05:40:38.948Z,94.43
2022-12-12T05:41:42.782Z,94.42
2022-12-12T05:42:46.646Z,94.50
2022-12-12T05:43:50.707Z,94.22
2022-12-12T05:44:55.080Z,94.11
2022-12-12T05:45:59.276Z,94.25
2022-12-12T05:47:03.137Z,94.39
2022-12-12T05:48:07.130Z,94.38
2022-12-12T05:49:10.819Z,94.46
2022-12-12T05:50:15.108Z,94.68
2022-12-12T05:51:19.558Z,94.66
2022-12-12T05:52:23.304Z,95.18
2022-12-12T05:53:26.880Z,94.99
2022-12-12T05:54:30.902Z,94.85
2022-12-12T05:55:35.654Z,94.82
2022-12-12T05:56:39.493Z,94.98
2022-12-12T05:57:43.272Z,95.05
2022-12-12T05:58:46.804Z,95.19
2022-12-12T05:59:51.200Z,95.25
2022-12-12T06:00:58.587Z,94.93
2022-12-12T06:02:07.029Z,94.70
2022-12-12T06:03:10.734Z,94.89
2022-12-12T06:04:14.959Z,94.36
2022-12-12T06:05:19.004Z,94.38
2022-12-12T06:06:23.264Z,94.80
2022-12-12T06:07:27.176Z,94.71
2022-12-12T06:08:31.002Z,94.93
2022-12-12T06:09:35.268Z,94.34
2022-12-12T06:10:39.185Z,94.51
2022-12-12T06:11:43.439Z,94.67
2022-12-12T06:12:47.235Z,94.42
2022-12-12T06:13:50.828Z,94.57
2022-12-12T06:14:54.321Z,95.03
2022-12-12T06:15:58.119Z,94.81
2022-12-12T06:17:01.977Z,94.81
2022-12-12T06:18:06.527Z,95.18
2022-12-12T06:19:10.731Z,95.43
2022-12-12T06:20:14.375Z,94.90
2022-12-12T06:21:18.465Z,95.08
2022-12-12T06:22:22.300Z,95.25
2022-12-12T06:23:26.439Z,94.92
2022-12-12T06:24:30.060Z,95.26
2022-12-12T06:25:34.118Z,95.56
2022-12-12T06:26:37.752Z,96.01
2022-12-12T06:27:41.822Z,96.28
2022-12-12T06:28:46.970Z,95.87
2022-12-12T06:29:50.638Z,95.83
2022-12-12T06:30:54.470Z,95.90
2022-12-12T06:31:58.288Z,96.03
2022-12-12T06:33:02.785Z,96.04
2022-12-12T06:34:06.805Z,96.24
2022-12-12T06:35:12.523Z,95.75
2022-12-12T06:36:24.730Z,95.69
2022-12-12T06:37:28.776Z,95.92
2022-12-12T06:38:33.532Z,96.13
2022-12-12T06:39:38.375Z,96.35
2022-12-12T06:40:42.603Z,95.90
2022-12-12T06:41:46.475Z,95.33
2022-12-12T06:42:50.480Z,95.72
2022-12-12T06:43:55.727Z,95.94
2022-12-12T06:44:59.389Z,96.48
2022-12-12T06:46:06.460Z,96.40
2022-12-12T06:47:10.599Z,96.60
2022-12-12T06:48:14.704Z,96.53
2022-12-12T06:49:18.714Z,96.03
2022-12-12T06:50:23.952Z,96.26
2022-12-12T06:51:36.507Z,96.10
2022-12-12T06:52:40.403Z,95.98
2022-12-12T06:53:44.910Z,95.56
2022-12-12T06:54:49.131Z,95.50
2022-12-12T06:55:52.965Z,95.13
2022-12-12T06:56:57.049Z,94.84
2022-12-12T06:58:01.104Z,95.11
2022-12-12T06:59:05.136Z,95.00
2022-12-12T07:00:09.858Z,94.90
2022-12-12T07:01:16.360Z,95.30
2022-12-12T07:02:26.028Z,94.95
2022-12-12T07:03:33.753Z,95.03
2022-12-12T07:04:37.750Z,95.09
2022-12-12T07:05:41.457Z,95.33
2022-12-12T07:06:45.875Z,95.59
2022-12-12T07:07:49.752Z,95.53
2022-12-12T07:08:53.714Z,95.62
2022-12-12T07:09:57.776Z,95.45
2022-12-12T07:11:26.104Z,95.10
2022-12-12T07:12:29.944Z,95.21
2022-12-12T07:13:34.307Z,95.31
2022-12-12T07:14:40.321Z,94.98
2022-12-12T07:15:50.420Z,95.35
2022-12-12T07:16:54.733Z,95.33
2022-12-12T07:17:58.609Z,95.72
2022-12-12T07:19:02.801Z,95.69
2022-12-12T07:20:10.694Z,96.00
2022-12-12T07:21:18.738Z,95.89
2022-12-12T07:22:23.293Z,96.00
2022-12-12T07:23:27.621Z,95.79
2022-12-12T07:24:31.483Z,95.66
2022-12-12T07:25:38.822Z,96.13
2022-12-12T07:26:42.860Z,96.51
2022-12-12T07:27:47.162Z,96.34
2022-12-12T07:28:52.222Z,96.29
2022-12-12T07:29:55.716Z,95.99
2022-12-12T07:31:01.529Z,95.43
2022-12-12T07:32:05.733Z,95.57
2022-12-12T07:33:11.677Z,95.64
2022-12-12T07:34:15.368Z,95.41
2022-12-12T07:35:19.305Z,95.49
2022-12-12T07:36:24.932Z,95.89
2022-12-12T07:37:30.138Z,96.18
2022-12-12T07:38:36.935Z,96.19
2022-12-12T07:39:40.935Z,96.28
2022-12-12T07:40:44.815Z,96.05
2022-12-12T07:41:48.786Z,96.02
2022-12-12T07:42:52.869Z,95.61
2022-12-12T07:43:56.532Z,95.83
2022-12-12T07:45:00.230Z,96.37
2022-12-12T07:46:08.287Z,95.76
2022-12-12T07:47:11.875Z,95.96
2022-12-12T07:48:15.803Z,95.63
2022-12-12T07:49:19.667Z,95.35
2022-12-12T07:50:23.674Z,95.05
2022-12-12T07:51:27.314Z,94.91
2022-12-12T07:52:30.865Z,94.67
2022-12-12T07:53:34.522Z,95.00
2022-12-12T07:54:38.419Z,95.02
2022-12-12T07:55:41.983Z,95.07
2022-12-12T07:56:45.832Z,95.18
2022-12-12T07:57:50.485Z,95.26
2022-12-12T07:58:55.601Z,95.08
2022-12-12T07:59:59.520Z,94.83
2022-12-12T08:01:15.415Z,94.61
2022-12-12T08:02:19.107Z,94.67
2022-12-12T08:03:23.034Z,94.51
2022-12-12T08:04:27.506Z,94.48
2022-12-12T08:05:31.615Z,94.37
2022-12-12T08:06:35.205Z,94.65
2022-12-12T08:07:38.822Z,94.90
2022-12-12T08:08:47.826Z,94.81
2022-12-12T08:09:51.588Z,94.81
2022-12-12T08:10:55.768Z,94.32
2022-12-12T08:12:00.307Z,94.24
2022-12-12T08:13:04.281Z,94.14
2022-12-12T08:14:12.884Z,94.21
2022-12-12T08:15:18.452Z,94.66
2022-12-12T08:16:30.290Z,94.39
2022-12-12T08:17:34.136Z,94.19
2022-12-12T08:18:37.828Z,94.79
2022-12-12T08:19:41.599Z,94.50
2022-12-12T08:20:45.839Z,94.66
2022-12-12T08:21:49.739Z,94.38
2022-12-12T08:22:53.958Z,94.18
2022-12-12T08:24:00.748Z,94.57
2022-12-12T08:25:05.084Z,94.91
2022-12-12T08:26:12.491Z,94.95
2022-12-12T08:27:17.625Z,94.32
2022-12-12T08:28:25.208Z,94.57
2022-12-12T08:29:29.600Z,95.04
2022-12-12T08:30:33.280Z,95.18
2022-12-12T08:31:39.921Z,95.08
2022-12-12T08:32:44.073Z,94.82
2022-12-12T08:33:50.835Z,94.21
2022-12-12T08:34:59.512Z,94.43
2022-12-12T08:36:15.603Z,94.70
2022-12-12T08:37:19.930Z,94.35
2022-12-12T08:38:24.825Z,94.12
2022-12-12T08:39:28.701Z,93.99
2022-12-12T08:40:32.489Z,94.11
2022-12-12T08:41:40.613Z,94.22
2022-12-12T08:42:45.378Z,94.38
2022-12-12T08:43:50.509Z,94.66
2022-12-12T08:46:23.177Z,95.00
2022-12-12T08:47:39.523Z,94.96
2022-12-12T08:48:45.597Z,94.73
2022-12-12T08:49:49.548Z,94.93
2022-12-12T08:50:54.817Z,95.11
2022-12-12T08:51:58.917Z,95.15
2022-12-12T08:53:03.017Z,95.46
2022-12-12T09:06:19.408Z,95.57
2022-12-12T09:07:23.575Z,95.32
2022-12-12T09:08:32.129Z,95.37
2022-12-12T09:09:37.424Z,94.90
2022-12-12T09:10:42.702Z,95.20
2022-12-12T09:11:47.231Z,95.35
2022-12-12T09:12:51.200Z,95.14
2022-12-12T09:13:54.804Z,94.92
2022-12-12T09:14:58.524Z,94.82
2022-12-12T09:16:02.749Z,94.64
2022-12-12T09:17:12.593Z,94.91
2022-12-12T09:18:16.371Z,95.21
2022-12-12T09:19:19.984Z,95.48
2022-12-12T09:20:24.116Z,95.02
2022-12-12T09:21:27.943Z,94.77
2022-12-12T09:22:32.706Z,95.11
2022-12-12T09:23:36.873Z,94.76
2022-12-12T09:24:40.518Z,94.65
2022-12-12T09:25:44.869Z,94.83
2022-12-12T09:26:48.818Z,94.57
2022-12-12T09:27:52.568Z,94.46
2022-12-12T09:28:56.155Z,94.71
2022-12-12T09:30:00.260Z,94.67
2022-12-12T09:31:16.909Z,94.60
2022-12-12T09:32:24.623Z,94.20
2022-12-12T09:33:28.838Z,94.69
2022-12-12T09:34:34.358Z,94.41
2022-12-12T09:35:38.554Z,94.45
2022-12-12T09:36:42.291Z,94.88
2022-12-12T09:37:46.387Z,94.45
2022-12-12T09:38:50.604Z,94.39
2022-12-12T09:39:54.183Z,94.19
2022-12-12T09:41:09.896Z,93.96
2022-12-12T09:42:29.744Z,93.94
2022-12-12T09:43:41.345Z,93.68
2022-12-12T09:44:46.073Z,93.75
2022-12-12T09:45:51.177Z,93.94
2022-12-12T09:47:09.750Z,93.89
2022-12-12T09:48:35.762Z,94.13
2022-12-12T09:49:55.837Z,93.93
2022-12-12T09:51:00.520Z,93.83
2022-12-12T09:52:04.904Z,93.85
2022-12-12T09:53:18.539Z,93.43
2022-12-12T09:54:26.995Z,93.49
2022-12-12T09:56:12.590Z,93.29
2022-12-12T09:57:41.721Z,92.96
2022-12-12T09:59:24.113Z,92.83
2022-12-12T10:00:35.440Z,92.83
2022-12-12T10:02:13.083Z,93.28
2022-12-12T10:03:46.295Z,92.96
2022-12-12T10:05:27.288Z,92.53
2022-12-12T10:06:49.201Z,92.62
2022-12-12T10:08:24.601Z,92.77
2022-12-12T10:10:13.935Z,93.03
2022-12-12T10:11:52.126Z,92.92
2022-12-12T10:13:00.141Z,92.70
2022-12-12T10:14:14.154Z,92.60
2022-12-12T10:15:39.574Z,92.26
2022-12-12T10:16:45.028Z,92.71
2022-12-12T10:17:50.326Z,92.80
2022-12-12T10:19:05.653Z,92.86
2022-12-12T10:20:28.866Z,93.05
2022-12-12T10:21:40.948Z,92.93
2022-12-12T10:23:00.368Z,92.74
2022-12-12T10:24:40.856Z,93.17
2022-12-12T10:25:54.685Z,92.95
2022-12-12T10:27:11.046Z,92.71
2022-12-12T10:28:19.690Z,92.33
2022-12-12T10:29:27.458Z,92.33
2022-12-12T10:30:37.178Z,92.76
2022-12-12T10:32:24.967Z,91.73
2022-12-12T10:34:13.960Z,92.25
2022-12-12T10:35:54.199Z,92.27
2022-12-12T10:37:54.520Z,92.30
2022-12-12T10:39:31.842Z,92.26
2022-12-12T10:41:12.299Z,92.08
2022-12-12T10:43:01.725Z,91.86
2022-12-12T10:44:47.007Z,91.80
2022-12-12T10:46:32.605Z,91.37
2022-12-12T10:47:36.540Z,91.78
2022-12-12T10:48:41.148Z,92.00
2022-12-12T10:49:45.121Z,91.85
2022-12-12T10:50:57.927Z,91.58
2022-12-12T10:52:15.464Z,91.65
2022-12-12T10:53:24.873Z,91.40
2022-12-12T10:54:37.456Z,91.54
2022-12-12T10:56:09.390Z,91.52
2022-12-12T10:57:26.161Z,91.28
2022-12-12T10:58:43.816Z,91.59
2022-12-12T10:59:57.846Z,91.62
2022-12-12T11:01:12.687Z,92.04
2022-12-12T11:02:40.020Z,91.60
2022-12-12T11:03:49.316Z,91.64
2022-12-12T11:05:24.528Z,91.55
2022-12-12T11:06:33.903Z,91.94
2022-12-12T11:07:45.380Z,92.24
2022-12-12T11:09:10.414Z,92.43
2022-12-12T11:10:32.164Z,92.21
2022-12-12T11:11:37.847Z,92.62
2022-12-12T11:12:41.749Z,92.52
2022-12-12T11:14:01.438Z,93.04
2022-12-12T11:15:17.657Z,92.87
2022-12-12T11:16:29.313Z,92.79
2022-12-12T11:17:35.290Z,93.14
2022-12-12T11:18:39.369Z,92.96
2022-12-12T11:19:46.658Z,93.44
2022-12-12T11:21:14.665Z,92.89
2022-12-12T11:22:19.427Z,93.08
2022-12-12T11:23:29.447Z,92.69
2022-12-12T11:24:35.020Z,92.54
2022-12-12T11:25:38.833Z,92.44
2022-12-12T11:26:49.505Z,93.10
2022-12-12T11:27:55.046Z,93.49
2022-12-12T11:29:03.534Z,93.78
2022-12-12T11:30:25.443Z,93.13
2022-12-12T11:31:38.791Z,93.32
2022-12-12T11:32:48.628Z,93.47
2022-12-12T11:34:07.520Z,93.82
2022-12-12T11:35:43.854Z,93.15
2022-12-12T11:36:51.451Z,93.23
2022-12-12T11:38:23.249Z,93.40
2022-12-12T11:39:41.813Z,93.65
2022-12-12T11:41:05.855Z,94.34
2022-12-12T11:42:16.148Z,94.54
2022-12-12T11:43:27.881Z,94.41
2022-12-12T11:44:44.245Z,94.54
2022-12-12T11:46:00.298Z,94.88
2022-12-12T11:47:24.127Z,95.48
2022-12-12T11:48:38.665Z,95.54
2022-12-12T11:49:54.588Z,95.89
2022-12-12T11:50:58.647Z,95.85
2022-12-12T11:52:20.577Z,95.58
2022-12-12T11:53:24.296Z,95.59
2022-12-12T11:54:31.613Z,95.04
2022-12-12T11:56:04.435Z,95.60
2022-12-12T11:57:35.180Z,95.73
2022-12-12T11:58:50.369Z,95.87
2022-12-12T12:00:19.711Z,96.30
2022-12-12T12:02:05.111Z,95.79
2022-12-12T12:03:33.761Z,95.98
2022-12-12T12:05:04.852Z,95.97
2022-12-12T12:06:44.946Z,95.91
2022-12-12T12:08:30.478Z,96.04
2022-12-12T12:10:03.674Z,96.18
2022-12-12T12:11:41.038Z,95.87
2022-12-12T12:13:35.242Z,95.92
2022-12-12T12:14:58.917Z,95.96
2022-12-12T12:16:41.746Z,95.67
2022-12-12T12:18:17.116Z,96.23
2022-12-12T12:20:13.044Z,96.40
2022-12-12T12:21:43.826Z,96.81
2022-12-12T12:22:59.536Z,97.13
2022-12-12T12:24:37.132Z,96.84
2022-12-12T12:25:55.951Z,96.97
2022-12-12T12:27:32.135Z,96.35
2022-12-12T12:29:21.558Z,96.34
2022-12-12T12:30:34.626Z,95.77
2022-12-12T12:31:59.865Z,95.70
2022-12-12T12:33:31.799Z,95.70
2022-12-12T12:35:18.173Z,95.79
2022-12-12T12:36:55.198Z,95.25
2022-12-12T12:38:34.115Z,96.34
2022-12-12T12:40:10.169Z,96.07
2022-12-12T12:41:41.742Z,96.38
2022-12-12T12:43:22.816Z,96.55
2022-12-12T12:45:23.915Z,96.50
2022-12-12T12:47:04.617Z,97.17
2022-12-12T12:48:59.674Z,96.79
2022-12-12T12:50:21.196Z,97.69
2022-12-12T12:51:43.133Z,98.00
2022-12-12T12:53:24.493Z,97.46
2022-12-12T12:54:38.179Z,96.78
2022-12-12T12:55:50.917Z,96.42
2022-12-12T12:57:20.436Z,96.54
2022-12-12T12:58:40.558Z,96.80
2022-12-12T13:00:00.857Z,96.40
2022-12-12T13:01:12.799Z,96.73
2022-12-12T13:02:41.334Z,96.28
2022-12-12T13:04:18.234Z,96.46
2022-12-12T13:05:26.964Z,96.28
2022-12-12T13:06:43.934Z,96.34
2022-12-12T13:08:26.082Z,95.95
2022-12-12T13:09:59.236Z,96.13
2022-12-12T13:11:39.780Z,96.11
2022-12-12T13:13:17.351Z,96.40
2022-12-12T13:14:45.039Z,95.78
2022-12-12T13:15:58.012Z,95.82
2022-12-12T13:17:07.568Z,96.31
2022-12-12T13:18:17.937Z,95.95
2022-12-12T13:19:47.913Z,95.65
2022-12-12T13:21:07.269Z,95.60
2022-12-12T13:22:49.161Z,95.39
2022-12-12T13:23:59.905Z,95.34
2022-12-12T13:25:48.476Z,95.37
2022-12-12T13:27:20.999Z,95.36
2022-12-12T13:28:36.598Z,95.54
2022-12-12T13:29:54.118Z,95.74
2022-12-12T13:31:31.437Z,95.90
2022-12-12T13:33:22.818Z,95.19
2022-12-12T13:34:31.587Z,95.02
2022-12-12T13:35:46.415Z,95.12
2022-12-12T13:36:53.727Z,95.25
2022-12-12T13:37:59.363Z,94.72
2022-12-12T13:39:09.313Z,94.92
2022-12-12T13:40:27.208Z,95.31
2022-12-12T13:42:14.761Z,94.88
2022-12-12T13:43:55.283Z,94.37
2022-12-12T13:45:45.211Z,94.72
2022-12-12T13:46:51.682Z,94.63
2022-12-12T13:48:03.977Z,94.90
2022-12-12T13:49:07.760Z,94.88
2022-12-12T13:50:11.479Z,94.90
2022-12-12T13:51:31.589Z,94.67
2022-12-12T13:52:44.786Z,94.33
2022-12-12T13:53:48.798Z,94.72
2022-12-12T13:55:12.970Z,94.80
2022-12-12T13:56:43.518Z,94.54
2022-12-12T13:58:01.734Z,94.78
2022-12-12T13:59:25.663Z,94.35
2022-12-12T14:00:33.130Z,94.65
2022-12-12T14:01:41.002Z,94.14
2022-12-12T14:03:14.997Z,93.96
2022-12-12T14:04:37.317Z,94.27
2022-12-12T14:05:45.770Z,94.18
2022-12-12T14:07:17.156Z,94.25
2022-12-12T14:08:28.831Z,94.51
2022-12-12T14:09:48.345Z,93.83
2022-12-12T14:11:01.778Z,94.00
2022-12-12T14:12:34.335Z,93.53
2022-12-12T14:13:46.020Z,93.80
2022-12-12T14:15:19.568Z,93.66
2022-12-12T14:16:27.894Z,94.22
2022-12-12T14:17:42.180Z,94.13
2022-12-12T14:18:50.189Z,93.99
2022-12-12T14:19:58.989Z,94.57
2022-12-12T14:21:10.927Z,94.65
2022-12-12T14:22:36.570Z,94.87
2022-12-12T14:23:51.891Z,94.79
2022-12-12T14:25:08.955Z,95.05
2022-12-12T14:26:28.941Z,95.30
2022-12-12T14:27:52.733Z,94.95
2022-12-12T14:29:17.997Z,94.76
2022-12-12T14:30:33.855Z,94.47
2022-12-12T14:32:07.089Z,94.54
2022-12-12T14:33:17.078Z,95.02
2022-12-12T14:35:00.761Z,94.61
2022-12-12T14:36:25.600Z,94.90
2022-12-12T14:38:03.239Z,95.15
2022-12-12T14:39:46.835Z,95.25
2022-12-12T14:41:00.165Z,95.40
2022-12-12T14:42:12.786Z,95.39
2022-12-12T14:43:30.369Z,95.75
2022-12-12T14:44:36.350Z,95.73
2022-12-12T14:45:52.267Z,95.37
2022-12-12T14:46:59.485Z,95.42
2022-12-12T14:48:30.401Z,95.70
2022-12-12T14:49:34.626Z,95.11
2022-12-12T14:50:40.724Z,95.35
2022-12-12T14:51:52.339Z,95.11
2022-12-12T14:52:56.178Z,94.99
2022-12-12T14:54:04.343Z,94.77
2022-12-12T14:55:16.141Z,95.02
2022-12-12T14:56:36.846Z,94.28
2022-12-12T14:57:42.233Z,94.40
2022-12-12T14:58:57.292Z,94.52
2022-12-12T15:00:02.524Z,94.66
2022-12-12T15:01:08.348Z,94.89
2022-12-12T15:02:34.623Z,94.88
2022-12-12T15:03:43.333Z,94.54
2022-12-12T15:04:55.182Z,94.58
2022-12-12T15:06:29.474Z,94.67
2022-12-12T15:07:39.313Z,94.92
2022-12-12T15:08:45.232Z,94.43
2022-12-12T15:09:50.442Z,94.34
2022-12-12T15:11:00.391Z,94.39
2022-12-12T15:12:24.656Z,94.57
2022-12-12T15:13:28.423Z,94.81
2022-12-12T15:14:32.299Z,95.01
2022-12-12T15:15:36.632Z,94.77
2022-12-12T15:16:56.960Z,94.75
2022-12-12T15:18:02.332Z,94.82
2022-12-12T15:19:36.662Z,94.73
2022-12-12T15:20:40.839Z,94.86
2022-12-12T15:21:52.266Z,94.90
2022-12-12T15:23:07.086Z,94.92
2022-12-12T15:24:26.886Z,94.71
2022-12-12T15:25:59.209Z,94.86
2022-12-12T15:27:14.341Z,94.87
2022-12-12T15:28:33.299Z,94.88
2022-12-12T15:29:38.608Z,95.02
2022-12-12T15:30:48.314Z,95.08
2022-12-12T15:32:07.886Z,95.06
2022-12-12T15:33:22.523Z,95.45
2022-12-12T15:34:42.825Z,95.33
2022-12-12T15:36:09.748Z,95.67
2022-12-12T15:37:26.343Z,95.49
2022-12-12T15:38:31.519Z,95.71
2022-12-12T15:39:35.238Z,95.75
2022-12-12T15:40:41.838Z,95.44
2022-12-12T15:41:50.903Z,95.84
2022-12-12T15:42:58.968Z,95.86
2022-12-12T15:44:04.627Z,95.77
2022-12-12T15:45:34.824Z,95.84
2022-12-12T15:46:38.780Z,95.74
2022-12-12T15:47:42.591Z,95.96
2022-12-12T15:48:50.590Z,95.84
2022-12-12T15:49:55.071Z,95.57
2022-12-12T15:51:06.689Z,95.83
2022-12-12T15:52:29.090Z,96.00
2022-12-12T15:53:46.447Z,96.04
2022-12-12T15:55:03.132Z,96.19
2022-12-12T15:56:15.568Z,96.45
2022-12-12T15:57:26.159Z,96.35
2022-12-12T15:58:38.579Z,96.29
2022-12-12T16:00:01.225Z,95.99
2022-12-12T16:01:21.725Z,95.79
2022-12-12T16:02:37.558Z,96.22
2022-12-12T16:04:07.018Z,96.00
2022-12-12T16:05:37.368Z,96.43